Time;durP1;ratioP1;P1;durP2;ratioP2;P2;SDS_P1;SDS_P2;PMS_P1;PMS_P2;Temp;Humidity;BMP_temperature;BMP_pressure;BME280_temperature;BME280_humidity;BME280_pressure;Samples;Min_cycle;Max_cycle;Signal;HPM_P1;HPM_P2
2022/03/04 00:04:22;;;;;;;27.90;14.18;;;;;;;1.18;100.00;102034.09;2599527;54;20050;31
2022/03/04 00:07:02;;;;;;;27.33;14.30;;;;;;;1.12;100.00;102034.25;2600129;54;20796;31
2022/03/04 00:09:37;;;;;;;;;;;;;;;1.18;100.00;102036.72;2600530;46;21561;31
2022/03/04 00:15:02;;;;;;;27.50;15.05;;;;;;;1.02;100.00;102044.28;2600542;54;20046;31
2022/03/04 00:25:27;;;;;;;28.60;14.50;;;;;;;0.60;100.00;102056.03;2599334;54;20163;31
2022/03/04 00:28:10;;;;;;;27.20;15.05;;;;;;;0.54;100.00;102058.00;2599992;54;20249;31
2022/03/04 00:30:47;;;;;;;25.50;14.70;;;;;;;0.48;100.00;102054.59;2600733;47;20384;31
2022/03/04 00:41:11;;;;;;;29.00;14.55;;;;;;;0.14;100.00;102058.13;2599612;54;21434;31
2022/03/04 00:48:54;;;;;;;25.43;13.83;;;;;;;0.09;100.00;102056.50;2599962;54;21057;31
2022/03/04 00:51:29;;;;;;;27.55;14.20;;;;;;;0.08;100.00;102062.72;2600749;54;21479;31
2022/03/04 00:59:12;;;;;;;31.60;15.55;;;;;;;0.22;100.00;102055.31;2599492;54;20501;31
2022/03/04 01:04:21;;;;;;;30.25;15.82;;;;;;;0.21;100.00;102050.03;2599887;54;20859;31
2022/03/04 01:06:58;;;;;;;30.47;15.60;;;;;;;0.12;100.00;102051.16;2600455;54;21159;31
2022/03/04 01:09:33;;;;;;;28.50;14.82;;;;;;;0.05;100.00;102054.88;2599845;47;20101;31
2022/03/04 01:12:10;;;;;;;25.90;13.93;;;;;;;-0.01;100.00;102047.94;2601003;39;20120;31
2022/03/04 01:22:35;;;;;;;27.45;15.05;;;;;;;-0.01;100.00;102040.88;2599155;54;20250;31
2022/03/04 01:27:43;;;;;;;28.73;14.80;;;;;;;-0.13;100.00;102051.78;2600064;54;21743;31
2022/03/04 01:30:19;;;;;;;28.27;14.33;;;;;;;-0.18;100.00;102053.66;2600745;47;21030;31
2022/03/04 01:38:10;;;;;;;28.58;14.82;;;;;;;-0.43;100.00;102067.47;2599268;54;20440;31
2022/03/04 01:48:28;;;;;;;26.42;13.55;;;;;;;-0.38;100.00;102062.94;2599887;54;20654;31
2022/03/04 01:56:14;;;;;;;28.10;14.00;;;;;;;-0.66;100.00;102052.13;2599537;54;20039;31
2022/03/04 02:03:59;;;;;;;27.65;14.10;;;;;;;-0.82;100.00;102041.03;2599673;54;21203;31
2022/03/04 02:06:35;;;;;;;25.77;14.40;;;;;;;-0.88;100.00;102043.81;2600524;54;19946;31
2022/03/04 02:16:59;;;;;;;26.75;14.35;;;;;;;-1.22;100.00;102049.81;2599224;54;21388;31
2022/03/04 02:22:12;;;;;;;24.77;13.30;;;;;;;-1.50;100.00;102034.50;2599445;54;21190;31
2022/03/04 02:27:20;;;;;;;29.60;15.15;;;;;;;-1.62;100.00;102043.53;2599532;54;21116;31
2022/03/04 02:29:56;;;;;;;31.85;14.65;;;;;;;-1.57;100.00;102040.78;2600282;54;20042;31
2022/03/04 02:40:24;;;;;;;27.37;13.70;;;;;;;-1.55;100.00;102038.97;2599217;54;21065;31
2022/03/04 02:43:01;;;;;;;27.23;14.05;;;;;;;-1.59;100.00;102037.28;2600104;47;20078;31
2022/03/04 02:50:42;;;;;;;28.67;14.93;;;;;;;-1.64;100.00;102044.44;2601216;54;19965;31
2022/03/04 03:03:38;;;;;;;29.20;14.05;;;;;;;-1.83;100.00;102044.75;2600990;39;20269;31
2022/03/04 03:06:14;;;;;;;26.05;13.82;;;;;;;-1.82;100.00;102056.22;2602349;39;21402;31
2022/03/04 03:08:51;;;;;;;28.00;14.37;;;;;;;-1.84;100.00;102056.25;2601089;46;20204;31
2022/03/04 03:19:16;;;;;;;28.42;14.27;;;;;;;-1.84;100.00;102060.63;2599918;54;20034;31
2022/03/04 03:24:25;;;;;;;26.30;14.10;;;;;;;-1.85;100.00;102062.41;2612725;31;21559;31
2022/03/04 03:32:10;;;;;;;31.30;13.63;;;;;;;-1.73;100.00;102055.19;2602263;54;20058;31
2022/03/04 03:39:56;;;;;;;23.97;12.77;;;;;;;-1.52;100.00;102067.97;2609052;39;20296;31
2022/03/04 03:45:06;;;;;;;23.75;12.23;;;;;;;-1.49;100.00;102062.63;2609027;39;20309;31
2022/03/04 03:47:43;;;;;;;26.95;12.95;;;;;;;-1.51;100.00;102061.78;2602532;54;20428;31
2022/03/04 03:50:19;;;;;;;24.75;12.35;;;;;;;-1.44;100.00;102074.00;2602894;54;20046;31
2022/03/04 04:00:45;;;;;;;26.13;13.10;;;;;;;-1.42;100.00;102077.47;2601623;54;20059;31
2022/03/04 04:05:54;;;;;;;24.27;12.90;;;;;;;-1.63;100.00;102072.59;2602186;54;20050;31
2022/03/04 04:16:14;;;;;;;25.27;13.17;;;;;;;-1.61;100.00;102073.44;2602257;54;20046;31
2022/03/04 04:21:24;;;;;;;25.90;13.80;;;;;;;-1.59;100.00;102079.53;2602308;54;20271;31
2022/03/04 04:24:08;;;;;;;27.60;13.65;;;;;;;-1.69;100.00;102077.97;2602347;47;20049;31
2022/03/04 04:26:44;;;;;;;26.95;12.80;;;;;;;-1.57;100.00;102075.13;2602841;47;20046;31
2022/03/04 04:34:36;;;;;;;26.05;14.32;;;;;;;-1.68;100.00;102085.00;2601979;54;20352;31
2022/03/04 04:39:45;;;;;;;24.27;12.57;;;;;;;-1.65;100.00;102084.94;2602432;54;21211;31
2022/03/04 04:42:21;;;;;;;24.88;12.95;;;;;;;-1.71;100.00;102085.91;2602965;54;20031;31
2022/03/04 04:52:46;;;;;;;30.10;14.23;;;;;;;-1.80;100.00;102086.06;2601869;54;20035;31
2022/03/04 04:58:00;;;;;;;24.55;13.73;;;;;;;-1.79;100.00;102085.19;2601976;54;20038;31
2022/03/04 05:00:35;;;;;;;25.55;13.32;;;;;;;-1.78;100.00;102074.59;2602314;47;21227;31
2022/03/04 05:08:21;;;;;;;28.40;13.40;;;;;;;-1.81;100.00;102077.31;2601774;54;20057;31
2022/03/04 05:13:29;;;;;;;28.15;14.30;;;;;;;-1.76;100.00;102075.44;2613192;39;21302;31
2022/03/04 05:16:06;;;;;;;26.17;13.88;;;;;;;-1.84;100.00;102082.63;2601382;47;20050;31
2022/03/04 05:18:42;;;;;;;26.58;13.95;;;;;;;-1.77;100.00;102081.63;2625590;36;20343;31
2022/03/04 05:24:02;;;;;;;31.33;13.90;;;;;;;-1.81;100.00;102090.50;2602191;54;20014;31
2022/03/04 05:29:13;;;;;;;30.05;13.80;;;;;;;-1.95;100.00;102097.75;2601803;54;20304;31
2022/03/04 05:36:56;;;;;;;30.48;15.50;;;;;;;-1.98;100.00;102097.81;2601959;54;20037;31
2022/03/04 05:39:34;;;;;;;28.73;14.30;;;;;;;-1.96;100.00;102096.00;2612637;39;21039;31
2022/03/04 05:44:44;;;;;;;29.20;15.32;;;;;;;-1.85;100.00;102102.00;2601827;54;20086;31
2022/03/04 05:47:19;;;;;;;28.23;14.38;;;;;;;-1.82;100.00;102104.56;2602733;46;21341;31
2022/03/04 05:57:46;;;;;;;29.45;14.98;;;;;;;-1.89;100.00;102113.50;2613007;39;21039;31
2022/03/04 06:00:23;;;;;;;27.85;14.90;;;;;;;-1.90;100.00;102127.56;2602461;47;20042;31
2022/03/04 06:05:38;;;;;;;24.85;13.85;;;;;;;-1.99;100.00;102114.53;2601518;54;20800;31
2022/03/04 06:08:14;;;;;;;32.53;16.57;;;;;;;-2.01;100.00;102117.19;2601777;47;20046;31
2022/03/04 06:13:46;;;;;;;34.72;16.45;;;;;;;-2.04;100.00;102114.63;2601907;54;21612;31
2022/03/04 06:24:02;;;;;;;34.60;17.65;;;;;;;-2.02;100.00;102114.59;2601796;54;20042;31
2022/03/04 06:26:38;;;;;;;30.77;16.58;;;;;;;-2.07;100.00;102114.66;2621054;36;20069;31
2022/03/04 06:31:48;;;;;;;34.90;17.35;;;;;;;-1.98;100.00;102114.50;2602052;54;20057;31
2022/03/04 06:34:24;;;;;;;35.50;17.80;;;;;;;-2.02;100.00;102117.22;2601888;47;21290;31
2022/03/04 06:42:20;;;;;;;34.13;16.38;;;;;;;-2.00;100.00;102132.16;2601394;54;20083;31
2022/03/04 06:50:08;;;;;;;30.10;16.70;;;;;;;-1.88;100.00;102136.34;2601526;54;20026;31
2022/03/04 06:55:17;;;;;;;36.00;17.37;;;;;;;-1.85;100.00;102146.00;2607841;39;21779;31
2022/03/04 07:00:27;;;;;;;35.22;17.23;;;;;;;-1.80;100.00;102154.69;2601829;54;20564;31
2022/03/04 07:03:04;;;;;;;37.00;17.35;;;;;;;-1.72;100.00;102152.81;2609069;39;20277;31
2022/03/04 07:13:31;;;;;;;32.25;16.73;;;;;;;-1.56;100.00;102169.28;2601424;54;20034;31
2022/03/04 07:16:07;;;;;;;37.15;18.10;;;;;;;-1.56;100.00;102179.84;2602643;47;21029;31
2022/03/04 07:31:43;;;;;;;34.15;17.17;;;;;;;-1.14;100.00;102187.88;2601559;54;20097;31
2022/03/04 07:36:53;;;;;;;37.05;17.55;;;;;;;-0.94;100.00;102174.31;2602445;54;20034;31
2022/03/04 07:44:52;;;;;;;35.53;17.23;;;;;;;-0.66;100.00;102178.16;2602759;54;20379;31
2022/03/04 07:47:30;;;;;;;35.45;18.05;;;;;;;-0.59;100.00;102170.09;2602837;47;20050;31
2022/03/04 07:50:13;;;;;;;37.47;18.55;;;;;;;-0.54;100.00;102167.34;2602824;54;20333;31
2022/03/04 07:52:48;;;;;;;35.33;18.25;;;;;;;-0.43;100.00;102173.25;2603392;54;21041;31
2022/03/04 08:03:16;;;;;;;33.33;17.50;;;;;;;-0.04;100.00;102178.56;2602153;54;21339;31
2022/03/04 08:05:57;;;;;;;38.80;18.88;;;;;;;0.04;100.00;102181.03;2603087;46;20956;31
2022/03/04 08:11:12;;;;;;;33.60;17.80;;;;;;;0.31;100.00;102176.88;2601969;54;19954;31
2022/03/04 08:13:49;;;;;;;32.58;18.42;;;;;;;0.32;100.00;102181.28;2602851;54;20050;31
2022/03/04 08:16:29;;;;;;;33.60;17.50;;;;;;;0.38;100.00;102174.94;2603106;54;20026;31
2022/03/04 08:24:17;;;;;;;;;;;;;;;0.73;100.00;102180.25;2602486;54;21198;31
2022/03/04 08:26:58;;;;;;;31.70;16.45;;;;;;;0.83;100.00;102192.38;2603196;47;20981;31
2022/03/04 08:32:08;;;;;;;36.42;18.90;;;;;;;0.87;100.00;102196.69;2602341;54;20050;31
2022/03/04 08:34:43;;;;;;;37.13;17.70;;;;;;;1.03;100.00;102205.97;2603182;47;21381;31
2022/03/04 08:47:47;;;;;;;36.97;19.53;;;;;;;1.68;100.00;102201.47;2601970;54;20046;31
2022/03/04 08:50:22;;;;;;;34.45;18.08;;;;;;;1.75;100.00;102204.78;2602405;47;21198;31
2022/03/04 08:52:59;;;;;;;31.38;18.65;;;;;;;1.66;100.00;102210.38;2603150;47;21318;31
2022/03/04 09:13:44;;;;;;;30.63;17.55;;;;;;;2.56;100.00;102189.84;2601900;54;20038;31
2022/03/04 09:18:54;;;;;;;31.83;17.05;;;;;;;2.83;100.00;102195.16;2602227;54;20405;31
2022/03/04 09:21:30;;;;;;;39.63;18.25;;;;;;;2.94;100.00;102198.31;2608714;39;20278;31
2022/03/04 09:24:06;;;;;;;32.70;17.08;;;;;;;3.13;100.00;102186.09;2602609;47;21564;31
2022/03/04 09:29:18;;;;;;;27.80;16.52;;;;;;;3.45;100.00;102189.38;2602079;54;21044;31
2022/03/04 09:31:54;;;;;;;28.52;16.73;;;;;;;3.42;100.00;102189.47;2602667;47;20050;31
2022/03/04 09:34:30;;;;;;;28.13;17.02;;;;;;;3.35;100.00;102180.00;2607500;39;20296;31
2022/03/04 09:37:06;;;;;;;29.73;17.13;;;;;;;3.43;100.00;102177.91;2614040;39;20854;31
2022/03/04 09:52:50;;;;;;;27.77;16.20;;;;;;;4.09;100.00;102190.47;2601918;54;20889;31
2022/03/04 09:55:28;;;;;;;28.20;16.65;;;;;;;4.20;100.00;102188.25;2602345;47;20217;31
2022/03/04 10:03:23;;;;;;;30.38;17.58;;;;;;;4.45;100.00;102181.91;2601514;54;20422;31
2022/03/04 10:06:01;;;;;;;29.55;17.55;;;;;;;4.53;100.00;102174.47;2602242;47;20045;31
2022/03/04 10:08:42;;;;;;;28.95;15.80;;;;;;;4.45;100.00;102176.56;2619962;36;20390;31
2022/03/04 10:11:30;;;;;;;29.58;16.25;;;;;;;4.40;100.00;102167.88;2602300;47;20022;31
2022/03/04 10:24:39;;;;;;;26.70;16.35;;;;;;;4.90;100.00;102164.88;2602047;54;20097;31
2022/03/04 10:36:16;;;;;;;27.20;15.50;;;;;;;5.21;100.00;102168.84;2602084;54;20737;31
2022/03/04 10:39:03;;;;;;;24.63;15.15;;;;;;;5.38;100.00;102167.22;2602589;47;20380;31
2022/03/04 11:38:03;;;;;;;20.85;13.02;;;;;;;7.58;100.00;102133.84;2602964;54;20062;31
2022/03/04 11:51:35;;;;;;;15.80;10.65;;;;;;;8.10;99.48;102126.50;2602370;54;20381;31
2022/03/04 12:08:22;;;;;;;19.75;11.73;;;;;;;8.13;91.34;102113.78;2608493;39;20395;31
2022/03/04 12:11:06;;;;;;;18.70;10.93;;;;;;;8.41;94.76;102110.34;2602904;47;20428;31
2022/03/04 12:22:13;;;;;;;14.07;9.00;;;;;;;8.45;80.37;102111.06;2602928;54;20046;31
2022/03/04 12:32:47;;;;;;;16.55;10.48;;;;;;;8.81;79.28;102100.88;2601543;54;21021;31
2022/03/04 12:35:27;;;;;;;15.45;10.05;;;;;;;9.23;83.68;102094.66;2602229;47;20034;31
2022/03/04 12:40:45;;;;;;;17.10;9.45;;;;;;;9.00;83.65;102106.84;2620511;36;21562;31
2022/03/04 12:43:25;;;;;;;19.30;10.40;;;;;;;8.88;73.92;102099.56;2602904;47;20038;31
2022/03/04 12:53:49;;;;;;;;;;;;;;;8.73;77.58;102095.97;2602353;54;20042;31
2022/03/04 12:56:26;;;;;;;16.63;10.57;;;;;;;8.88;78.62;102092.34;2602448;54;19946;31
2022/03/04 12:59:08;;;;;;;18.85;11.15;;;;;;;8.63;75.21;102095.69;2608942;39;20358;31
2022/03/04 13:01:45;;;;;;;14.70;8.90;;;;;;;8.70;81.12;102083.63;2611465;31;21237;31
2022/03/04 13:06:59;;;;;;;15.85;9.52;;;;;;;8.83;72.06;102078.34;2601652;54;20083;31
2022/03/04 13:09:42;;;;;;;15.15;9.90;;;;;;;8.92;72.54;102082.28;2601901;46;20034;31
2022/03/04 13:12:22;;;;;;;15.93;9.63;;;;;;;9.03;73.49;102078.94;2602314;47;21611;31
2022/03/04 13:17:39;;;;;;;18.08;10.30;;;;;;;9.14;74.43;102070.19;2601857;54;21323;31
2022/03/04 13:20:23;;;;;;;16.10;10.00;;;;;;;9.13;72.94;102072.03;2602623;47;20108;31
2022/03/04 13:23:08;;;;;;;15.80;10.05;;;;;;;8.95;75.38;102068.66;2604446;54;21447;31
2022/03/04 13:28:26;;;;;;;14.95;9.95;;;;;;;8.85;77.15;102064.81;2602058;54;20089;31
2022/03/04 13:33:42;;;;;;;16.90;11.10;;;;;;;9.02;74.65;102066.47;2601961;54;21655;31
2022/03/04 13:41:37;;;;;;;16.65;11.18;;;;;;;8.84;75.12;102065.78;2601584;54;20056;31
2022/03/04 13:49:22;;;;;;;16.60;10.52;;;;;;;8.87;75.26;102049.50;2601730;54;20589;31
2022/03/04 13:52:01;;;;;;;17.20;11.00;;;;;;;8.92;82.85;102045.56;2602142;54;20041;31
2022/03/04 13:54:46;;;;;;;16.40;10.90;;;;;;;8.84;77.34;102050.53;2620676;36;20418;31
2022/03/04 13:57:31;;;;;;;16.05;10.70;;;;;;;8.70;83.95;102047.84;2602224;54;20317;31
2022/03/04 14:00:16;;;;;;;19.77;10.73;;;;;;;8.73;83.44;102045.84;2602477;47;20068;31
2022/03/04 14:02:56;;;;;;;17.55;10.30;;;;;;;8.79;74.92;102043.72;2602423;47;20391;31
2022/03/04 14:15:55;;;;;;;;;;;;;;;8.86;78.32;102035.22;2601465;54;20034;31
2022/03/04 14:18:34;;;;;;;18.15;11.05;;;;;;;8.81;81.60;102039.13;2602353;47;21038;31
2022/03/04 14:29:20;;;;;;;18.13;11.07;;;;;;;8.88;78.67;102040.47;2601285;54;20089;31
2022/03/04 14:31:59;;;;;;;16.85;10.25;;;;;;;8.76;79.34;102031.38;2602359;54;20101;31
2022/03/04 14:37:22;;;;;;;19.98;11.88;;;;;;;8.74;80.91;102030.59;2602007;54;21185;31
2022/03/04 14:40:02;;;;;;;18.60;11.80;;;;;;;8.76;81.61;102028.69;2607415;39;20878;31
2022/03/04 14:48:00;;;;;;;19.27;11.60;;;;;;;8.84;81.86;102030.88;2614045;31;20394;31
2022/03/04 14:56:24;;;;;;;17.50;10.65;;;;;;;8.58;88.45;102020.81;2602127;54;20461;31
2022/03/04 14:59:09;;;;;;;18.85;10.80;;;;;;;8.68;86.02;102023.78;2603014;54;20050;31
2022/03/04 15:04:37;;;;;;;19.35;10.95;;;;;;;8.57;79.74;102023.59;2602999;54;20919;31
2022/03/04 15:12:28;;;;;;;18.10;10.75;;;;;;;8.41;84.59;102024.50;2602114;54;20039;31
2022/03/04 15:15:10;;;;;;;18.77;10.57;;;;;;;8.37;90.72;102031.00;2609085;39;20247;31
2022/03/04 15:17:47;;;;;;;16.92;10.63;;;;;;;8.47;89.51;102023.28;2609083;39;20283;31
2022/03/04 15:25:43;;;;;;;15.18;9.57;;;;;;;8.12;84.13;102022.72;2607808;39;20330;31
2022/03/04 15:28:22;;;;;;;18.30;10.45;;;;;;;8.12;85.33;102018.19;2602662;47;20038;31
2022/03/04 15:36:14;;;;;;;16.15;9.55;;;;;;;8.12;86.81;102033.44;2606819;39;20613;31
2022/03/04 15:54:24;;;;;;;19.03;10.17;;;;;;;7.68;88.55;102019.00;2607474;39;20284;31
2022/03/04 15:57:05;;;;;;;21.02;9.75;;;;;;;7.63;89.42;102027.31;2602050;46;20068;31
2022/03/04 15:59:44;;;;;;;16.65;9.30;;;;;;;7.51;91.30;102018.16;2602421;46;20042;31
2022/03/04 16:02:20;;;;;;;16.50;9.18;;;;;;;7.46;87.64;102020.22;2602197;47;20470;31
2022/03/04 16:07:58;;;;;;;16.73;9.48;;;;;;;7.33;91.27;102017.41;2601782;54;20030;31
2022/03/04 16:10:40;;;;;;;16.95;9.30;;;;;;;7.33;92.76;102019.19;2608020;39;20317;31
2022/03/04 16:28:49;;;;;;;19.77;12.32;;;;;;;6.90;100.00;102025.09;2602081;54;20124;31
2022/03/04 16:34:17;;;;;;;24.52;12.82;;;;;;;6.78;100.00;102042.69;2607776;39;20311;31
2022/03/04 16:44:51;;;;;;;23.63;13.45;;;;;;;6.42;100.00;102042.81;2602284;54;20499;31
2022/03/04 16:47:31;;;;;;;26.95;14.20;;;;;;;6.42;100.00;102042.81;2602683;54;20355;31
2022/03/04 16:55:20;;;;;;;25.05;14.25;;;;;;;6.20;100.00;102049.31;2601675;54;21005;31
2022/03/04 16:57:57;;;;;;;28.73;14.00;;;;;;;6.05;100.00;102050.94;2613508;31;20347;31
2022/03/04 17:05:52;;;;;;;30.55;15.90;;;;;;;5.73;100.00;102055.19;2606069;39;20411;31
2022/03/04 17:08:28;;;;;;;30.77;16.10;;;;;;;5.66;100.00;102051.09;2602736;54;20042;31
2022/03/04 17:16:18;;;;;;;27.17;15.45;;;;;;;5.46;100.00;102063.56;2601416;54;20034;31
2022/03/04 17:27:11;;;;;;;28.00;14.35;;;;;;;5.01;100.00;102064.81;2645699;53;20123;31
2022/03/04 17:40:02;;;;;;;33.70;17.35;;;;;;;4.52;100.00;102059.84;2606008;54;20441;31
2022/03/04 17:42:42;;;;;;;32.10;16.98;;;;;;;4.36;100.00;102065.00;2624660;36;20101;31
2022/03/04 17:58:09;;;;;;;37.97;17.25;;;;;;;4.02;100.00;102055.78;2606319;54;20034;31
2022/03/04 18:03:19;;;;;;;35.15;16.08;;;;;;;3.89;100.00;102075.84;2605972;54;20387;31
2022/03/04 18:08:30;;;;;;;30.03;14.63;;;;;;;3.48;100.00;102080.13;2611124;38;20377;31
2022/03/04 18:13:42;;;;;;;28.80;13.80;;;;;;;3.32;100.00;102086.97;2605983;54;20038;31
2022/03/04 18:18:57;;;;;;;31.70;14.93;;;;;;;3.09;100.00;102093.16;2606437;54;20708;31
2022/03/04 18:21:33;;;;;;;27.98;13.80;;;;;;;3.00;100.00;102093.50;2606774;54;20098;31
2022/03/04 18:34:29;;;;;;;28.67;13.88;;;;;;;2.46;100.00;102101.63;2606164;54;20419;31
2022/03/04 18:50:29;;;;;;;30.20;15.30;;;;;;;2.08;100.00;102128.53;2602323;54;20041;31
2022/03/04 18:53:08;;;;;;;30.35;15.25;;;;;;;1.95;100.00;102127.19;2602496;47;21424;31
2022/03/04 18:58:27;;;;;;;32.90;16.27;;;;;;;1.77;100.00;102127.78;2602710;54;21117;31
2022/03/04 19:01:03;;;;;;;34.40;16.48;;;;;;;1.60;100.00;102131.81;2614175;39;21268;31
2022/03/04 19:06:21;;;;;;;33.88;16.15;;;;;;;1.54;100.00;102137.31;2602146;54;20458;31
2022/03/04 19:11:31;;;;;;;34.28;17.67;;;;;;;1.40;100.00;102135.94;2602546;54;20042;31
2022/03/04 19:14:07;;;;;;;31.05;16.90;;;;;;;1.29;100.00;102142.50;2602801;54;20034;31
2022/03/04 19:19:17;;;;;;;33.53;17.67;;;;;;;1.18;100.00;102145.47;2602122;54;20712;31
2022/03/04 19:21:56;;;;;;;35.37;17.27;;;;;;;1.09;100.00;102135.97;2602694;54;20098;31
2022/03/04 19:24:34;;;;;;;;;;;;;;;1.05;100.00;102140.47;2602756;47;21322;31
2022/03/04 19:27:11;;;;;;;34.10;17.65;;;;;;;0.96;100.00;102147.84;2602446;47;20318;31
2022/03/04 19:29:47;;;;;;;29.70;15.90;;;;;;;0.89;100.00;102140.97;2602683;54;20435;31
2022/03/04 19:32:23;;;;;;;30.98;15.75;;;;;;;0.85;100.00;102141.06;2604780;47;21250;31
2022/03/04 19:40:15;;;;;;;23.67;12.40;;;;;;;0.92;100.00;102140.88;2610110;39;20310;31
2022/03/04 19:45:25;;;;;;;25.92;12.48;;;;;;;0.75;100.00;102130.72;2602235;54;20046;31
2022/03/04 19:50:37;;;;;;;25.63;13.02;;;;;;;0.69;100.00;102131.75;2602003;54;20351;31
2022/03/04 19:55:49;;;;;;;24.48;12.55;;;;;;;0.66;100.00;102132.72;2602208;54;20072;31
2022/03/04 20:03:35;;;;;;;27.10;14.37;;;;;;;0.57;100.00;102140.91;2602122;54;20045;31
2022/03/04 20:46:44;;;;;;;22.38;12.23;;;;;;;-0.12;100.00;102143.47;2600052;54;20015;31
2022/03/04 21:01:12;;;;;;;24.25;11.75;;;;;;;-0.10;100.00;102141.69;2608943;39;20312;31
2022/03/04 21:32:01;;;;;;;23.65;11.23;;;;;;;0.15;100.00;102147.25;2602266;54;21529;31
2022/03/04 21:37:16;;;;;;;21.50;11.35;;;;;;;-0.05;100.00;102146.84;2601467;54;20938;31
2022/03/04 21:39:52;;;;;;;22.30;11.60;;;;;;;0.03;100.00;102142.25;2606968;39;20843;31
2022/03/04 21:45:02;;;;;;;23.47;11.63;;;;;;;-0.07;100.00;102143.38;2601728;54;21661;31
2022/03/04 21:50:14;;;;;;;26.70;12.10;;;;;;;-0.03;100.00;102145.03;2601576;54;20470;31
2022/03/04 21:52:52;;;;;;;25.40;12.10;;;;;;;-0.11;100.00;102141.72;2602337;47;20273;31
2022/03/04 22:00:42;;;;;;;23.25;11.10;;;;;;;0.06;100.00;102136.00;2601328;54;20046;31
2022/03/04 22:05:53;;;;;;;25.80;11.90;;;;;;;0.25;100.00;102142.63;2606181;39;20938;31
2022/03/04 22:13:57;;;;;;;21.65;11.10;;;;;;;0.13;100.00;102143.78;2612694;31;21751;31
2022/03/04 22:16:43;;;;;;;24.75;11.15;;;;;;;0.12;100.00;102151.75;2602763;54;20044;31
2022/03/04 22:19:19;;;;;;;22.15;10.80;;;;;;;0.17;100.00;102139.28;2602609;47;20394;31
2022/03/04 22:24:47;;;;;;;27.65;11.80;;;;;;;0.07;100.00;102137.75;2603329;54;21165;31
2022/03/04 22:32:50;;;;;;;25.58;11.38;;;;;;;-0.09;100.00;102132.84;2601754;54;20301;31
2022/03/04 22:35:26;;;;;;;26.95;12.20;;;;;;;-0.11;100.00;102136.41;2602331;47;20444;31
2022/03/04 22:40:54;;;;;;;22.38;11.10;;;;;;;-0.05;100.00;102137.13;2602941;54;20093;31
2022/03/04 22:48:42;;;;;;;25.55;12.40;;;;;;;-0.21;100.00;102127.81;2602354;54;21410;31
2022/03/04 22:53:52;;;;;;;24.90;12.50;;;;;;;-0.21;100.00;102130.47;2602264;31;20483;31
2022/03/04 22:59:03;;;;;;;23.38;11.43;;;;;;;-0.18;100.00;102119.81;2607288;39;20998;31
2022/03/04 23:01:41;;;;;;;25.30;12.38;;;;;;;-0.10;100.00;102117.84;2605414;39;20319;31
2022/03/04 23:15:12;;;;;;;24.88;13.20;;;;;;;-0.11;100.00;102118.75;2601790;54;20473;31
2022/03/04 23:22:56;;;;;;;25.77;12.30;;;;;;;-0.24;100.00;102122.59;2602260;54;20470;31
2022/03/04 23:28:06;;;;;;;25.55;12.30;;;;;;;-0.40;100.00;102115.03;2602027;54;20098;31
2022/03/04 23:33:21;;;;;;;22.27;11.63;;;;;;;-0.35;100.00;102112.28;2601994;54;20519;31
2022/03/04 23:41:05;;;;;;;25.90;12.40;;;;;;;-0.35;100.00;102114.91;2602066;54;20723;31
2022/03/04 23:46:14;;;;;;;25.10;11.00;;;;;;;-0.42;100.00;102116.81;2602112;54;21650;31
2022/03/04 23:51:25;;;;;;;25.65;12.05;;;;;;;-0.49;100.00;102117.84;2601899;54;20302;31
2022/03/04 23:56:36;;;;;;;26.20;12.47;;;;;;;-0.48;100.00;102127.53;2608028;39;21540;31
